Airfield :







YOU CAN JOIN US ON...

 
LOGIN :

Register | Disclaimer

   EN    FR    IT 

 









Legend :    VFR   Marginal VFR   IFR   Intensive IFR   Very Intensive IFR
Visi :
Ceiling :
>= 8 km
>= 3000ft
5 to 8 km
1000 to 3000 ft
1500m to 5 km
500 to 1000 ft
800 to 1500m
200 to 500 ft
< 800m
< 200 ft
Symbols :   Thunderstorms  Fog  Heavy snow  Heavy precipitations  Wind > 20 kt






- Airport Elevation : 141 ft
- IATA code : YQI


CYQI - Yarmouth

CURRENT METAR :
  • 071500Z 34010KT 10SM -SHSN BKN025 M02/M05 A3014 RMK SC7 CVCTV CLD EMBD SLP211

EXPIRED METARs :
  • 071400Z 35007KT 10SM -SHSN OVC033 M02/M04 A3013 RMK SC8 CVCTV CLD EMBD SLP206
  • 071353Z 36009G15KT 3SM -SHSN OVC032 M02/M04 A3012 RMK SC8 CVCTV CLD EMBD SLP204
  • 071335Z 32009KT 2SM -SHSN VV010 M02/M05 A3012 RMK SN8 CVCTV CLD EMBD SLP203
  • 071300Z 01004KT 10SM -SHSN BKN057 M03/M05 A3010 RMK SC7 CVCTV CLD EMBD SLP196

TAF AMD TAF CYQI
Valid from the 07 at 13:00 until the 08 at 00:00 UTC


071357Z 0713/0724 32008KT P6SM -SN OVC030
TEMPO 0713/0716 2SM -SHSN VV010
FM071600 32012KT P6SM -SN OVC040
TEMPO 0716/0720 5SM -SHSN
FM072000 34012KT P6SM BKN030 RMK NXT FCST BY 071800Z



MET'MAP, your aeronautical weather chart ! - Copyright ORBIFLY December 2007 - Disclaimer

ORBIFLY MET'MAP TEAM :

Programming & Development : Alexandra Zaïnal
Concept & original design : Baudouin d'Aumeries
Assistance for programming : Marc-Olivier Méhu
Technical & hardware support : Manuel Goepfert

Contact : metmap@orbifly.com




SOURCES & CREDITS :

   NOAA